Time;durP1;ratioP1;P1;durP2;ratioP2;P2;SDS_P1;SDS_P2;PMS_P1;PMS_P2;Temp;Humidity;BMP_temperature;BMP_pressure;BME280_temperature;BME280_humidity;BME280_pressure;Samples;Min_cycle;Max_cycle;Signal;HPM_P1;HPM_P2
2021/03/15 00:02:24;;;;;;;117.10;84.00;;;;;;;;;;5136749;28;20208;-57
2021/03/15 00:04:57;;;;;;;131.13;90.00;;;;;;;;;;5136933;28;20204;-55
2021/03/15 00:07:28;;;;;;;22.02;12.00;;;;;;;;;;5136722;28;20254;-53
2021/03/15 00:09:54;;;;;;;22.10;17.10;;;;;;;;;;5136915;28;20201;-55
2021/03/15 00:12:49;;;;;;;37.22;25.58;;;;;;;;;;5136217;28;20196;-49
2021/03/15 00:15:17;;;;;;;36.10;27.20;;;;;;;;;;5136738;28;20204;-54
2021/03/15 00:17:44;;;;;;;73.55;49.95;;;;;;;;;;5136515;28;20199;-49
2021/03/15 00:20:22;;;;;;;76.78;55.13;;;;;;;;;;5136565;28;20211;-53
2021/03/15 00:22:51;;;;;;;37.00;26.58;;;;;;;;;;5136034;28;20222;-54
2021/03/15 00:25:18;;;;;;;10.57;6.70;;;;;;;;;;5136698;28;20195;-55
2021/03/15 00:30:49;;;;;;;9.60;6.63;;;;;;;;;;5136847;28;20218;-52
2021/03/15 00:33:16;;;;;;;13.52;7.00;;;;;;;;;;5136645;28;20188;-50
2021/03/15 00:35:46;;;;;;;16.58;8.05;;;;;;;;;;5136595;28;20212;-51
2021/03/15 00:38:14;;;;;;;8.13;6.38;;;;;;;;;;5136295;28;20208;-54
2021/03/15 00:40:40;;;;;;;11.18;7.40;;;;;;;;;;5136653;28;20180;-52
2021/03/15 00:43:07;;;;;;;13.70;9.10;;;;;;;;;;5137285;28;20190;-53
2021/03/15 00:45:34;;;;;;;10.98;6.82;;;;;;;;;;5136290;28;20204;-49
2021/03/15 00:48:01;;;;;;;9.98;6.50;;;;;;;;;;5136553;28;20249;-53
2021/03/15 00:50:29;;;;;;;13.25;6.80;;;;;;;;;;5128422;28;20189;-45
2021/03/15 00:52:57;;;;;;;13.35;8.02;;;;;;;;;;5116047;28;20204;-54
2021/03/15 00:55:25;;;;;;;19.75;8.25;;;;;;;;;;5116160;28;20189;-57
2021/03/15 00:57:53;;;;;;;14.85;8.38;;;;;;;;;;5117105;28;20208;-56
2021/03/15 01:00:21;;;;;;;17.33;7.60;;;;;;;;;;5120029;28;20294;-49
2021/03/15 01:02:50;;;;;;;18.15;8.32;;;;;;;;;;5120239;28;20189;-54
2021/03/15 01:05:21;;;;;;;12.73;8.10;;;;;;;;;;5149615;27;20266;-51
2021/03/15 01:07:48;;;;;;;23.10;9.80;;;;;;;;;;5161219;27;20275;-49
2021/03/15 01:10:35;;;;;;;13.02;9.88;;;;;;;;;;5160804;27;20229;-53
2021/03/15 01:13:02;;;;;;;24.02;8.57;;;;;;;;;;5173162;27;20250;-51
2021/03/15 01:15:29;;;;;;;20.38;9.73;;;;;;;;;;5181744;27;20262;-45
2021/03/15 01:17:56;;;;;;;13.73;6.88;;;;;;;;;;5181826;27;20247;-52
2021/03/15 01:20:23;;;;;;;11.70;6.90;;;;;;;;;;5182235;27;20275;-52
2021/03/15 01:23:23;;;;;;;20.73;11.43;;;;;;;;;;5181066;27;20191;-55
2021/03/15 01:25:50;;;;;;;27.35;8.73;;;;;;;;;;5181560;27;20194;-57
2021/03/15 01:28:21;;;;;;;13.55;7.65;;;;;;;;;;5181330;27;20211;-52
2021/03/15 01:30:48;;;;;;;27.20;16.92;;;;;;;;;;5181081;27;20302;-56
2021/03/15 01:33:16;;;;;;;57.03;38.28;;;;;;;;;;5181171;27;20202;-50
2021/03/15 01:36:02;;;;;;;21.90;11.25;;;;;;;;;;5181766;27;20264;-53
2021/03/15 01:38:29;;;;;;;27.20;8.13;;;;;;;;;;5181140;27;20211;-51
2021/03/15 01:40:56;;;;;;;13.60;6.82;;;;;;;;;;5181648;27;20208;-52
2021/03/15 01:43:40;;;;;;;12.30;5.05;;;;;;;;;;5181402;27;20199;-54
2021/03/15 01:46:07;;;;;;;18.83;8.60;;;;;;;;;;5181355;27;20203;-57
2021/03/15 01:48:34;;;;;;;15.30;8.98;;;;;;;;;;5181008;27;20225;-51
2021/03/15 01:51:00;;;;;;;11.15;7.18;;;;;;;;;;5180976;27;20252;-50
2021/03/15 01:53:28;;;;;;;12.18;6.32;;;;;;;;;;5180847;27;20214;-52
2021/03/15 01:56:24;;;;;;;14.05;6.38;;;;;;;;;;5181067;27;20184;-50
2021/03/15 01:58:52;;;;;;;20.95;8.20;;;;;;;;;;5180826;27;20202;-55
2021/03/15 02:01:19;;;;;;;20.10;9.40;;;;;;;;;;5180962;27;20187;-55
2021/03/15 02:04:00;;;;;;;23.80;9.80;;;;;;;;;;5180949;27;20191;-54
2021/03/15 02:06:28;;;;;;;22.88;12.52;;;;;;;;;;5180673;27;20191;-55
2021/03/15 02:08:55;;;;;;;17.50;8.90;;;;;;;;;;5180643;27;20215;-54
2021/03/15 02:11:33;;;;;;;21.42;15.90;;;;;;;;;;5180263;27;20191;-54
2021/03/15 02:14:04;;;;;;;20.67;11.52;;;;;;;;;;5138770;28;20256;-52
2021/03/15 02:16:38;;;;;;;14.00;9.15;;;;;;;;;;5139443;28;20282;-52
2021/03/15 02:19:28;;;;;;;21.65;10.57;;;;;;;;;;5139475;28;20205;-55
2021/03/15 02:22:25;;;;;;;15.60;9.40;;;;;;;;;;5138919;28;20204;-50
2021/03/15 02:25:18;;;;;;;14.20;7.22;;;;;;;;;;5077032;28;20215;-52
2021/03/15 02:28:05;;;;;;;13.20;7.90;;;;;;;;;;5135592;28;20257;-51
2021/03/15 02:34:00;;;;;;;10.77;8.73;;;;;;;;;;5139062;28;20194;-54
2021/03/15 02:36:31;;;;;;;13.00;7.32;;;;;;;;;;5172224;27;20252;-51
2021/03/15 02:38:58;;;;;;;10.00;6.22;;;;;;;;;;5179972;27;20214;-54
2021/03/15 02:41:26;;;;;;;17.80;8.88;;;;;;;;;;5180442;27;20214;-52
2021/03/15 02:43:55;;;;;;;17.35;12.80;;;;;;;;;;5179944;27;20267;-48
2021/03/15 02:46:50;;;;;;;7.10;5.00;;;;;;;;;;5179716;27;20191;-53
2021/03/15 02:49:18;;;;;;;18.58;11.60;;;;;;;;;;5179792;27;20215;-47
2021/03/15 02:51:47;;;;;;;8.43;4.63;;;;;;;;;;5179578;27;20191;-49
2021/03/15 02:54:17;;;;;;;9.77;3.92;;;;;;;;;;5180187;27;20398;-54
2021/03/15 02:56:45;;;;;;;10.18;5.25;;;;;;;;;;5179962;27;20214;-48
2021/03/15 02:59:13;;;;;;;10.70;6.50;;;;;;;;;;5179733;27;20206;-52
2021/03/15 03:01:47;;;;;;;4.07;2.30;;;;;;;;;;5179703;27;20195;-55
2021/03/15 03:04:14;;;;;;;5.57;3.45;;;;;;;;;;5179148;27;20275;-52
2021/03/15 03:06:43;;;;;;;13.82;2.60;;;;;;;;;;5162735;27;20208;-52
2021/03/15 03:09:25;;;;;;;6.30;2.38;;;;;;;;;;5158765;27;20235;-50
2021/03/15 03:11:53;;;;;;;7.97;4.68;;;;;;;;;;5161357;27;20200;-51
2021/03/15 03:14:21;;;;;;;8.48;2.60;;;;;;;;;;5179221;27;20201;-59
2021/03/15 03:17:00;;;;;;;3.17;1.65;;;;;;;;;;5179033;27;20221;-51
2021/03/15 03:19:26;;;;;;;5.47;3.10;;;;;;;;;;5177404;27;20228;-50
2021/03/15 03:21:53;;;;;;;7.68;4.20;;;;;;;;;;5179073;27;20202;-54
2021/03/15 03:24:43;;;;;;;6.70;4.38;;;;;;;;;;5179368;27;20188;-47
2021/03/15 03:27:13;;;;;;;7.82;4.30;;;;;;;;;;5178760;27;20203;-50
2021/03/15 03:29:40;;;;;;;6.95;3.40;;;;;;;;;;5178582;27;20226;-56
2021/03/15 03:32:08;;;;;;;6.38;4.10;;;;;;;;;;5178763;27;20210;-53
2021/03/15 03:34:35;;;;;;;11.50;5.97;;;;;;;;;;5179146;27;20203;-56
2021/03/15 03:37:02;;;;;;;7.03;5.40;;;;;;;;;;5178867;27;20203;-55
2021/03/15 03:39:29;;;;;;;5.95;2.85;;;;;;;;;;5178699;27;20210;-59
2021/03/15 03:41:56;;;;;;;10.00;5.00;;;;;;;;;;5178791;27;20184;-53
2021/03/15 03:44:23;;;;;;;7.75;4.28;;;;;;;;;;5179028;27;20199;-51
2021/03/15 03:47:00;;;;;;;6.70;4.82;;;;;;;;;;5179123;27;20249;-53
2021/03/15 03:49:30;;;;;;;5.75;3.55;;;;;;;;;;5178912;27;20237;-50
2021/03/15 03:51:59;;;;;;;7.82;4.15;;;;;;;;;;5178904;27;20179;-51
2021/03/15 03:54:35;;;;;;;4.13;2.28;;;;;;;;;;5179150;27;20262;-55
2021/03/15 03:57:05;;;;;;;5.43;2.80;;;;;;;;;;5179287;27;20201;-52
2021/03/15 03:59:35;;;;;;;5.78;2.83;;;;;;;;;;5178891;27;20199;-55
2021/03/15 04:02:27;;;;;;;8.40;3.85;;;;;;;;;;5179343;27;20266;-54
2021/03/15 04:04:59;;;;;;;5.47;2.72;;;;;;;;;;5178089;27;20207;-53
2021/03/15 04:07:27;;;;;;;4.85;2.55;;;;;;;;;;5178502;27;20199;-58
2021/03/15 04:09:55;;;;;;;4.78;2.97;;;;;;;;;;5178454;27;20187;-52
2021/03/15 04:12:24;;;;;;;6.45;2.85;;;;;;;;;;5169591;27;20184;-56
2021/03/15 04:14:53;;;;;;;8.88;4.50;;;;;;;;;;5165804;27;20179;-57
2021/03/15 04:17:50;;;;;;;6.50;3.30;;;;;;;;;;5178474;27;20258;-57
2021/03/15 04:20:18;;;;;;;4.07;2.40;;;;;;;;;;5178643;27;20218;-57
2021/03/15 04:22:48;;;;;;;3.72;2.50;;;;;;;;;;5177953;27;20203;-57
2021/03/15 04:25:32;;;;;;;6.68;3.97;;;;;;;;;;5168241;27;20195;-50
2021/03/15 04:27:59;;;;;;;5.57;2.58;;;;;;;;;;5168816;27;20231;-52
2021/03/15 04:30:28;;;;;;;14.98;11.73;;;;;;;;;;5177438;27;20203;-52
2021/03/15 04:35:59;;;;;;;8.75;4.00;;;;;;;;;;5175720;27;20331;-56
2021/03/15 04:38:26;;;;;;;6.10;3.90;;;;;;;;;;5177475;27;20203;-58
2021/03/15 04:40:53;;;;;;;15.80;10.80;;;;;;;;;;5176949;27;20227;-56
2021/03/15 04:43:21;;;;;;;7.28;4.32;;;;;;;;;;5176908;27;20259;-56
2021/03/15 04:46:00;;;;;;;6.90;4.07;;;;;;;;;;5177316;27;20194;-54
2021/03/15 04:48:27;;;;;;;5.75;4.90;;;;;;;;;;5176710;27;20226;-52
2021/03/15 04:50:58;;;;;;;16.63;12.77;;;;;;;;;;5177218;27;20214;-56
2021/03/15 04:54:00;;;;;;;12.80;7.38;;;;;;;;;;5177610;27;20182;-53
2021/03/15 04:56:28;;;;;;;8.50;5.97;;;;;;;;;;5175295;27;20248;-51
2021/03/15 04:58:56;;;;;;;17.55;13.13;;;;;;;;;;5177434;27;20266;-56
2021/03/15 05:01:42;;;;;;;14.52;10.25;;;;;;;;;;5176753;27;20318;-52
2021/03/15 05:04:11;;;;;;;14.07;8.70;;;;;;;;;;5174984;27;20238;-54
2021/03/15 05:06:39;;;;;;;16.27;9.45;;;;;;;;;;5177196;27;20183;-53
2021/03/15 05:09:08;;;;;;;11.15;8.15;;;;;;;;;;5177223;27;20207;-57
2021/03/15 05:11:35;;;;;;;11.27;7.30;;;;;;;;;;5176852;27;20199;-57
2021/03/15 05:14:02;;;;;;;12.23;10.32;;;;;;;;;;5173227;27;20195;-55
2021/03/15 05:16:35;;;;;;;17.08;10.45;;;;;;;;;;5157567;27;20200;-56
2021/03/15 05:19:03;;;;;;;21.38;8.98;;;;;;;;;;5156241;28;20207;-53
2021/03/15 05:21:31;;;;;;;13.68;8.82;;;;;;;;;;5157341;27;20253;-54
2021/03/15 05:24:01;;;;;;;14.15;9.10;;;;;;;;;;5177009;27;20220;-58
2021/03/15 05:26:28;;;;;;;13.77;9.65;;;;;;;;;;5175779;27;20191;-56
2021/03/15 05:29:02;;;;;;;11.13;7.40;;;;;;;;;;5173291;27;20218;-57
2021/03/15 05:31:44;;;;;;;12.73;7.65;;;;;;;;;;5177084;27;20194;-51
2021/03/15 05:34:12;;;;;;;10.52;7.25;;;;;;;;;;5177111;27;20202;-55
2021/03/15 05:36:41;;;;;;;10.70;6.68;;;;;;;;;;5177381;27;20183;-56
2021/03/15 05:39:15;;;;;;;12.25;8.48;;;;;;;;;;5177061;27;20211;-55
2021/03/15 05:41:47;;;;;;;14.80;7.43;;;;;;;;;;5177374;27;20192;-60
2021/03/15 05:44:16;;;;;;;12.98;8.30;;;;;;;;;;5177335;27;20247;-56
2021/03/15 05:47:05;;;;;;;10.65;7.15;;;;;;;;;;5181054;27;20207;-49
2021/03/15 05:49:44;;;;;;;9.75;5.82;;;;;;;;;;5173921;27;20239;-54
2021/03/15 05:52:19;;;;;;;8.70;5.25;;;;;;;;;;5179916;27;20199;-54
2021/03/15 05:55:18;;;;;;;8.63;5.88;;;;;;;;;;5180840;27;20213;-55
2021/03/15 06:01:08;;;;;;;11.10;6.97;;;;;;;;;;5165414;27;20179;-49
2021/03/15 06:03:45;;;;;;;11.75;7.85;;;;;;;;;;5176574;27;20219;-51
2021/03/15 06:06:16;;;;;;;11.63;7.68;;;;;;;;;;5180784;27;20179;-52
2021/03/15 06:09:02;;;;;;;14.60;6.80;;;;;;;;;;5180564;27;20228;-54
2021/03/15 06:11:33;;;;;;;12.88;6.93;;;;;;;;;;5160805;27;20235;-48
2021/03/15 06:14:02;;;;;;;10.30;7.28;;;;;;;;;;5159987;27;20200;-49
2021/03/15 06:16:42;;;;;;;12.32;6.40;;;;;;;;;;5159854;27;20188;-53
2021/03/15 06:19:09;;;;;;;10.55;6.57;;;;;;;;;;5173278;27;20233;-54
2021/03/15 06:21:36;;;;;;;12.30;7.47;;;;;;;;;;5183481;27;20207;-51
2021/03/15 06:27:09;;;;;;;12.75;8.02;;;;;;;;;;5165518;27;20230;-54
2021/03/15 06:29:36;;;;;;;13.63;8.98;;;;;;;;;;5173396;27;20243;-55
2021/03/15 06:32:13;;;;;;;15.77;10.20;;;;;;;;;;5180019;27;20199;-52
2021/03/15 06:34:41;;;;;;;15.82;10.00;;;;;;;;;;5170198;27;20198;-53
2021/03/15 06:37:12;;;;;;;18.45;11.48;;;;;;;;;;5168201;27;20184;-53
2021/03/15 06:39:41;;;;;;;19.45;10.75;;;;;;;;;;5141875;27;20196;-47
2021/03/15 06:42:17;;;;;;;21.38;11.27;;;;;;;;;;5169742;27;20232;-53
2021/03/15 06:48:12;;;;;;;21.55;9.95;;;;;;;;;;5175264;27;20258;-51
2021/03/15 06:50:55;;;;;;;16.85;11.10;;;;;;;;;;5172082;27;20207;-51
2021/03/15 06:53:23;;;;;;;19.98;11.38;;;;;;;;;;5163006;27;20214;-50
2021/03/15 06:55:50;;;;;;;12.77;8.88;;;;;;;;;;5157439;27;20206;-48
2021/03/15 06:58:28;;;;;;;11.68;7.75;;;;;;;;;;5158249;27;20231;-53
2021/03/15 07:01:14;;;;;;;13.27;7.10;;;;;;;;;;5162913;27;20203;-51
2021/03/15 07:03:47;;;;;;;12.95;6.60;;;;;;;;;;5177406;27;20247;-53
2021/03/15 07:06:15;;;;;;;11.10;7.60;;;;;;;;;;5177702;27;20202;-52
2021/03/15 07:09:09;;;;;;;10.88;6.65;;;;;;;;;;5178678;27;20210;-57
2021/03/15 07:11:39;;;;;;;21.35;10.07;;;;;;;;;;5178346;27;20191;-54
2021/03/15 07:14:24;;;;;;;15.88;9.05;;;;;;;;;;5173654;27;20214;-49
2021/03/15 07:17:12;;;;;;;13.15;8.02;;;;;;;;;;5165728;27;20199;-46
2021/03/15 07:19:44;;;;;;;13.15;9.18;;;;;;;;;;5176260;27;20191;-50
2021/03/15 07:25:06;;;;;;;18.70;9.98;;;;;;;;;;5166694;27;20210;-51
2021/03/15 07:27:35;;;;;;;16.05;11.95;;;;;;;;;;5177180;27;20246;-53
2021/03/15 07:30:20;;;;;;;15.20;10.30;;;;;;;;;;5177199;27;20246;-45
2021/03/15 07:32:48;;;;;;;11.98;10.00;;;;;;;;;;5149059;27;20267;-50
2021/03/15 07:35:27;;;;;;;13.43;8.88;;;;;;;;;;5156457;27;20191;-48
2021/03/15 07:37:54;;;;;;;10.85;8.07;;;;;;;;;;5166695;27;20183;-53
2021/03/15 07:40:44;;;;;;;12.15;8.10;;;;;;;;;;5156174;27;20195;-49
2021/03/15 07:43:21;;;;;;;12.02;8.68;;;;;;;;;;5156271;27;20222;-51
2021/03/15 07:45:51;;;;;;;10.38;7.50;;;;;;;;;;5155500;27;20203;-53
2021/03/15 07:48:25;;;;;;;12.73;9.98;;;;;;;;;;5169222;27;20219;-52
2021/03/15 07:50:56;;;;;;;9.98;8.00;;;;;;;;;;5171044;27;20198;-57
2021/03/15 07:53:41;;;;;;;13.20;9.13;;;;;;;;;;5155347;27;20203;-51
2021/03/15 07:56:20;;;;;;;15.32;8.02;;;;;;;;;;5161845;27;20237;-52
2021/03/15 07:58:49;;;;;;;12.57;9.20;;;;;;;;;;5175496;27;20206;-52
2021/03/15 08:01:17;;;;;;;15.90;8.75;;;;;;;;;;5174860;27;20198;-48
2021/03/15 08:03:45;;;;;;;18.08;10.95;;;;;;;;;;5175113;27;20308;-53
2021/03/15 08:06:21;;;;;;;12.13;8.60;;;;;;;;;;5176223;27;20186;-54
2021/03/15 08:08:48;;;;;;;10.98;8.45;;;;;;;;;;5175284;27;20211;-50
2021/03/15 08:11:16;;;;;;;10.82;7.60;;;;;;;;;;5175545;27;20508;-49
2021/03/15 08:13:45;;;;;;;13.10;8.02;;;;;;;;;;5175824;27;20199;-52
2021/03/15 08:16:13;;;;;;;14.45;8.27;;;;;;;;;;5173535;27;20231;-47
2021/03/15 08:18:52;;;;;;;10.40;7.88;;;;;;;;;;5172774;27;20211;-52
2021/03/15 08:21:27;;;;;;;11.23;7.10;;;;;;;;;;5154682;27;20215;-50
2021/03/15 08:23:55;;;;;;;10.05;6.68;;;;;;;;;;5154516;27;20210;-54
2021/03/15 08:26:23;;;;;;;8.45;5.68;;;;;;;;;;5163702;27;20179;-54
2021/03/15 08:28:53;;;;;;;12.70;7.50;;;;;;;;;;5175737;27;20211;-49
2021/03/15 08:31:25;;;;;;;16.08;7.40;;;;;;;;;;5158071;27;20192;-51
2021/03/15 08:33:53;;;;;;;8.40;6.30;;;;;;;;;;5160432;27;20199;-49
2021/03/15 08:36:44;;;;;;;13.27;6.72;;;;;;;;;;5155119;27;20195;-49
2021/03/15 08:39:30;;;;;;;13.43;7.30;;;;;;;;;;5167260;27;20279;-51
2021/03/15 08:42:12;;;;;;;9.77;6.30;;;;;;;;;;5176186;27;20195;-52
2021/03/15 08:44:41;;;;;;;10.73;5.80;;;;;;;;;;5174759;27;20193;-51
2021/03/15 08:47:32;;;;;;;10.13;5.95;;;;;;;;;;5175399;27;20224;-47
2021/03/15 08:50:03;;;;;;;10.00;6.05;;;;;;;;;;5164199;27;20212;-53
2021/03/15 08:52:35;;;;;;;8.77;4.05;;;;;;;;;;5163537;27;20180;-47
2021/03/15 08:55:10;;;;;;;12.05;5.15;;;;;;;;;;5170296;27;20242;-53
2021/03/15 08:57:36;;;;;;;8.32;6.30;;;;;;;;;;5174391;27;20232;-49
2021/03/15 09:00:31;;;;;;;12.65;5.05;;;;;;;;;;5158859;27;20192;-51
2021/03/15 09:03:05;;;;;;;10.05;5.38;;;;;;;;;;5156298;27;20199;-56
2021/03/15 09:05:32;;;;;;;9.52;5.10;;;;;;;;;;5155253;28;20219;-45
2021/03/15 09:08:00;;;;;;;9.73;5.63;;;;;;;;;;5153702;28;20214;-53
2021/03/15 09:10:37;;;;;;;10.05;5.55;;;;;;;;;;5159867;27;20213;-50
2021/03/15 09:13:20;;;;;;;12.30;4.95;;;;;;;;;;5174767;27;20195;-54
2021/03/15 09:15:53;;;;;;;14.77;6.28;;;;;;;;;;5174786;27;20206;-53
2021/03/15 09:18:41;;;;;;;7.10;5.25;;;;;;;;;;5174821;27;20268;-52
2021/03/15 09:21:28;;;;;;;9.90;5.05;;;;;;;;;;5178453;27;20187;-52
2021/03/15 09:24:00;;;;;;;11.38;6.00;;;;;;;;;;5171489;27;20207;-48
2021/03/15 09:26:33;;;;;;;10.38;4.82;;;;;;;;;;5157547;27;20204;-57
2021/03/15 09:29:09;;;;;;;9.15;5.10;;;;;;;;;;5170269;27;20207;-48
2021/03/15 09:31:36;;;;;;;17.00;5.82;;;;;;;;;;5179473;27;20210;-50
2021/03/15 09:34:08;;;;;;;12.07;6.22;;;;;;;;;;5179189;27;20259;-50
2021/03/15 09:36:37;;;;;;;10.50;5.72;;;;;;;;;;5161960;27;20192;-52
2021/03/15 09:39:08;;;;;;;15.00;6.82;;;;;;;;;;5157128;27;20278;-53
2021/03/15 09:41:35;;;;;;;11.30;5.85;;;;;;;;;;5169328;27;20183;-58
2021/03/15 09:44:02;;;;;;;11.50;5.10;;;;;;;;;;5179150;27;20203;-51
2021/03/15 09:46:29;;;;;;;12.77;5.43;;;;;;;;;;5178396;27;20191;-52
2021/03/15 09:48:57;;;;;;;7.90;5.45;;;;;;;;;;5178980;27;20211;-56
2021/03/15 09:51:25;;;;;;;9.70;5.55;;;;;;;;;;5178335;27;20203;-51
2021/03/15 09:54:01;;;;;;;12.88;5.25;;;;;;;;;;5179036;27;20197;-54
2021/03/15 09:56:29;;;;;;;10.95;5.20;;;;;;;;;;5178201;27;20206;-47
2021/03/15 09:58:57;;;;;;;13.73;4.88;;;;;;;;;;5178665;27;20263;-51
2021/03/15 10:01:45;;;;;;;9.60;4.95;;;;;;;;;;5177941;27;20202;-55
2021/03/15 10:04:16;;;;;;;10.75;4.82;;;;;;;;;;5178127;27;20283;-54
2021/03/15 10:06:47;;;;;;;11.90;5.70;;;;;;;;;;5160115;27;20276;-49
2021/03/15 10:09:19;;;;;;;10.68;5.03;;;;;;;;;;5162776;27;20216;-51
2021/03/15 10:11:47;;;;;;;16.75;7.55;;;;;;;;;;5156666;27;20214;-52
2021/03/15 10:14:15;;;;;;;12.43;4.60;;;;;;;;;;5161216;27;20211;-52
2021/03/15 10:16:59;;;;;;;9.90;5.95;;;;;;;;;;5178574;27;20195;-47
2021/03/15 10:19:27;;;;;;;13.65;7.15;;;;;;;;;;5179227;27;20210;-47
2021/03/15 10:21:55;;;;;;;13.38;7.10;;;;;;;;;;5178710;27;20216;-50
2021/03/15 10:24:33;;;;;;;14.48;8.10;;;;;;;;;;5178776;27;20207;-50
2021/03/15 10:27:01;;;;;;;18.13;7.78;;;;;;;;;;5158817;27;20244;-51
2021/03/15 10:29:29;;;;;;;18.48;8.40;;;;;;;;;;5158368;27;20243;-49
2021/03/15 10:32:01;;;;;;;17.95;9.18;;;;;;;;;;5155992;27;20191;-49
2021/03/15 10:34:28;;;;;;;17.27;8.35;;;;;;;;;;5157999;27;20214;-48
2021/03/15 10:36:56;;;;;;;10.52;6.65;;;;;;;;;;5157810;27;20172;-50
2021/03/15 10:39:38;;;;;;;20.42;5.90;;;;;;;;;;5156374;27;20200;-48
2021/03/15 10:42:07;;;;;;;15.43;4.75;;;;;;;;;;5157095;27;20251;-51
2021/03/15 10:44:35;;;;;;;8.57;4.78;;;;;;;;;;5157587;27;20200;-55
2021/03/15 10:47:08;;;;;;;12.75;4.90;;;;;;;;;;5157594;27;20227;-65
2021/03/15 10:49:35;;;;;;;10.85;4.60;;;;;;;;;;5156960;27;20206;-51
2021/03/15 10:52:26;;;;;;;5.82;3.08;;;;;;;;;;5156974;27;20424;-51
2021/03/15 10:54:54;;;;;;;7.30;3.80;;;;;;;;;;5136514;28;20196;-48
2021/03/15 10:57:23;;;;;;;11.57;4.60;;;;;;;;;;5137833;27;20201;-46
2021/03/15 10:59:58;;;;;;;11.30;3.20;;;;;;;;;;5157214;27;20196;-49
2021/03/15 11:02:26;;;;;;;9.32;2.13;;;;;;;;;;5156996;27;20208;-47
2021/03/15 11:04:59;;;;;;;13.40;2.90;;;;;;;;;;5156599;27;20261;-51
2021/03/15 11:07:46;;;;;;;9.25;3.25;;;;;;;;;;5157640;27;20172;-52
2021/03/15 11:10:15;;;;;;;9.80;3.78;;;;;;;;;;5156848;27;20273;-52
2021/03/15 11:12:44;;;;;;;9.93;3.08;;;;;;;;;;5155784;27;20392;-47
2021/03/15 11:15:25;;;;;;;7.07;3.22;;;;;;;;;;5156430;27;20196;-50
2021/03/15 11:18:01;;;;;;;10.75;3.30;;;;;;;;;;5156159;27;20235;-53
2021/03/15 11:20:39;;;;;;;9.00;3.20;;;;;;;;;;5157320;27;20206;-57
2021/03/15 11:23:06;;;;;;;5.22;3.15;;;;;;;;;;5157088;27;20191;-53
2021/03/15 11:25:34;;;;;;;11.90;3.95;;;;;;;;;;5157709;27;20176;-54
2021/03/15 11:28:37;;;;;;;13.20;4.63;;;;;;;;;;5157193;27;20184;-55
2021/03/15 11:31:19;;;;;;;7.40;3.97;;;;;;;;;;5158329;27;20196;-59
2021/03/15 11:33:51;;;;;;;13.93;5.00;;;;;;;;;;5156911;27;20211;-56
2021/03/15 11:36:28;;;;;;;13.55;5.40;;;;;;;;;;5156776;27;20192;-60
2021/03/15 11:38:58;;;;;;;12.50;5.50;;;;;;;;;;5156776;27;20207;-43
2021/03/15 11:41:25;;;;;;;14.02;5.97;;;;;;;;;;5157096;27;20203;-56
2021/03/15 11:43:58;;;;;;;18.35;6.63;;;;;;;;;;5156396;27;20767;-56
2021/03/15 11:46:35;;;;;;;10.52;6.03;;;;;;;;;;5157092;27;20200;-60
2021/03/15 11:49:08;;;;;;;11.07;5.50;;;;;;;;;;5135418;28;20232;-60
2021/03/15 11:51:35;;;;;;;12.20;5.50;;;;;;;;;;5140539;27;20240;-55
2021/03/15 11:54:05;;;;;;;10.80;4.80;;;;;;;;;;5156736;27;20267;-50
2021/03/15 11:57:00;;;;;;;9.35;4.93;;;;;;;;;;5155455;27;20289;-54
2021/03/15 11:59:28;;;;;;;8.40;4.50;;;;;;;;;;5155216;27;20211;-55
2021/03/15 12:01:56;;;;;;;8.10;4.00;;;;;;;;;;5155493;27;20192;-56
2021/03/15 12:04:33;;;;;;;7.50;4.05;;;;;;;;;;5156383;27;20259;-54
2021/03/15 12:07:00;;;;;;;5.30;2.38;;;;;;;;;;5155253;27;20215;-61
2021/03/15 12:09:27;;;;;;;8.20;2.40;;;;;;;;;;5155180;27;20223;-62
2021/03/15 12:12:23;;;;;;;7.07;2.20;;;;;;;;;;5155516;27;20242;-53
2021/03/15 12:14:50;;;;;;;8.25;2.13;;;;;;;;;;5155486;27;20259;-56
2021/03/15 12:17:18;;;;;;;8.52;2.40;;;;;;;;;;5155554;27;20199;-51
2021/03/15 12:20:17;;;;;;;4.60;1.90;;;;;;;;;;5154157;27;20206;-57
2021/03/15 12:22:48;;;;;;;5.30;2.00;;;;;;;;;;5155750;27;20184;-57
2021/03/15 12:25:15;;;;;;;12.57;2.17;;;;;;;;;;5150630;27;20184;-58
2021/03/15 12:27:43;;;;;;;2.70;1.40;;;;;;;;;;5155857;27;20272;-55
2021/03/15 12:30:12;;;;;;;5.22;1.90;;;;;;;;;;5155520;27;20280;-54
2021/03/15 12:32:41;;;;;;;6.55;2.13;;;;;;;;;;5148655;27;20219;-54
2021/03/15 12:35:28;;;;;;;5.05;1.85;;;;;;;;;;5142704;27;20187;-54
2021/03/15 12:37:56;;;;;;;4.85;1.83;;;;;;;;;;5138373;27;20208;-56
2021/03/15 12:40:23;;;;;;;6.30;2.00;;;;;;;;;;5155285;27;20253;-51
2021/03/15 12:46:21;;;;;;;5.47;1.98;;;;;;;;;;5151361;28;20320;-56
2021/03/15 12:48:50;;;;;;;14.02;2.05;;;;;;;;;;5143219;28;20232;-56
2021/03/15 12:51:17;;;;;;;8.48;2.97;;;;;;;;;;5155468;28;20255;-48
2021/03/15 12:53:50;;;;;;;12.38;2.95;;;;;;;;;;5150087;28;20335;-60
2021/03/15 12:56:25;;;;;;;8.63;2.50;;;;;;;;;;5150425;27;20203;-52
2021/03/15 12:58:55;;;;;;;7.30;1.80;;;;;;;;;;5161280;27;20208;-59
2021/03/15 13:01:42;;;;;;;6.35;2.08;;;;;;;;;;5159315;27;20224;-53
2021/03/15 13:04:11;;;;;;;11.48;3.13;;;;;;;;;;5159366;27;20214;-49
2021/03/15 13:06:38;;;;;;;6.32;2.30;;;;;;;;;;5160702;27;20184;-55
2021/03/15 13:09:30;;;;;;;6.22;2.20;;;;;;;;;;5154953;27;20203;-52
2021/03/15 13:11:57;;;;;;;6.45;2.10;;;;;;;;;;5149639;27;20203;-55
2021/03/15 13:14:25;;;;;;;5.13;2.63;;;;;;;;;;5152920;27;20207;-52
2021/03/15 13:17:02;;;;;;;8.45;2.40;;;;;;;;;;5160787;27;20376;-55
2021/03/15 13:19:30;;;;;;;10.13;4.40;;;;;;;;;;5160558;27;20191;-58
2021/03/15 13:21:58;;;;;;;9.32;2.92;;;;;;;;;;5156624;27;20210;-54
2021/03/15 13:24:55;;;;;;;8.43;1.60;;;;;;;;;;5153596;27;20195;-52
2021/03/15 13:27:23;;;;;;;4.00;1.60;;;;;;;;;;5159892;27;20204;-54
2021/03/15 13:29:55;;;;;;;5.72;1.17;;;;;;;;;;5159664;27;20216;-58
2021/03/15 13:32:23;;;;;;;6.55;1.35;;;;;;;;;;5157206;27;20207;-60
2021/03/15 13:34:50;;;;;;;3.80;1.60;;;;;;;;;;5138403;27;20192;-54
2021/03/15 13:37:17;;;;;;;5.20;1.85;;;;;;;;;;5139372;28;20188;-54
2021/03/15 13:39:53;;;;;;;3.20;1.45;;;;;;;;;;5140291;28;20201;-54
2021/03/15 13:42:21;;;;;;;5.70;1.40;;;;;;;;;;5156442;27;20187;-58
2021/03/15 13:44:48;;;;;;;8.88;2.13;;;;;;;;;;5160179;27;20263;-50
2021/03/15 13:47:22;;;;;;;5.00;1.40;;;;;;;;;;5159172;27;20243;-55
2021/03/15 13:49:52;;;;;;;4.63;1.95;;;;;;;;;;5159544;27;20235;-58
2021/03/15 13:52:25;;;;;;;2.83;1.10;;;;;;;;;;5159941;27;20252;-58
2021/03/15 13:54:53;;;;;;;9.23;1.60;;;;;;;;;;5159803;27;20188;-51
2021/03/15 13:57:20;;;;;;;4.55;1.45;;;;;;;;;;5155353;27;20205;-53
2021/03/15 13:59:58;;;;;;;7.03;1.48;;;;;;;;;;5160125;27;20187;-51
2021/03/15 14:02:31;;;;;;;5.65;1.45;;;;;;;;;;5159794;27;20191;-55
2021/03/15 14:04:58;;;;;;;2.55;1.10;;;;;;;;;;5158446;27;20200;-54
2021/03/15 14:07:26;;;;;;;9.02;2.65;;;;;;;;;;5159539;27;20206;-59
2021/03/15 14:10:10;;;;;;;4.47;1.50;;;;;;;;;;5160227;27;20321;-55
2021/03/15 14:12:57;;;;;;;7.38;2.35;;;;;;;;;;5138900;28;20201;-56
2021/03/15 14:15:36;;;;;;;14.25;2.03;;;;;;;;;;5139519;28;20231;-55
2021/03/15 14:18:08;;;;;;;11.95;2.80;;;;;;;;;;5146163;27;20203;-59
2021/03/15 14:20:36;;;;;;;7.38;1.60;;;;;;;;;;5158635;27;20203;-56
2021/03/15 14:23:04;;;;;;;4.40;1.45;;;;;;;;;;5159156;27;20200;-60
2021/03/15 14:25:35;;;;;;;4.10;1.45;;;;;;;;;;5158020;27;20208;-57
2021/03/15 14:28:03;;;;;;;8.40;1.88;;;;;;;;;;5157253;27;20220;-50
2021/03/15 14:30:36;;;;;;;4.70;1.35;;;;;;;;;;5158823;27;20215;-57
2021/03/15 14:33:19;;;;;;;10.25;2.10;;;;;;;;;;5159215;27;20214;-59
2021/03/15 14:36:10;;;;;;;8.82;2.35;;;;;;;;;;5159596;27;20204;-56
2021/03/15 14:39:10;;;;;;;6.68;2.20;;;;;;;;;;5149611;27;20192;-56
2021/03/15 14:41:38;;;;;;;7.80;2.38;;;;;;;;;;5158993;27;20247;-55
2021/03/15 14:47:00;;;;;;;9.27;2.57;;;;;;;;;;5137715;28;20252;-59
2021/03/15 14:49:27;;;;;;;5.80;1.87;;;;;;;;;;5138302;28;20523;-58
2021/03/15 14:52:09;;;;;;;5.97;1.52;;;;;;;;;;5138541;28;20509;-57
2021/03/15 14:54:36;;;;;;;6.93;2.17;;;;;;;;;;5138629;28;20215;-54
2021/03/15 14:57:06;;;;;;;8.32;1.85;;;;;;;;;;5143108;27;20180;-57
2021/03/15 14:59:48;;;;;;;9.57;2.17;;;;;;;;;;5158782;27;20220;-58
2021/03/15 15:04:58;;;;;;;5.50;1.48;;;;;;;;;;5159003;27;20196;-56
2021/03/15 15:07:26;;;;;;;7.53;2.97;;;;;;;;;;5156178;27;20188;-57
2021/03/15 15:09:53;;;;;;;6.85;2.10;;;;;;;;;;5158988;27;20252;-56
2021/03/15 15:12:21;;;;;;;5.82;2.38;;;;;;;;;;5158629;27;20180;-51
2021/03/15 15:14:48;;;;;;;4.45;1.50;;;;;;;;;;5158110;27;20204;-50
2021/03/15 15:17:15;;;;;;;6.13;1.50;;;;;;;;;;5158560;27;20214;-59
2021/03/15 15:19:56;;;;;;;4.45;1.75;;;;;;;;;;5155345;27;20187;-53
2021/03/15 15:22:27;;;;;;;7.47;1.73;;;;;;;;;;5174256;27;20218;-58
2021/03/15 15:24:55;;;;;;;6.63;2.03;;;;;;;;;;5171049;27;20200;-56
2021/03/15 15:27:37;;;;;;;3.67;1.98;;;;;;;;;;5165108;27;20361;-59
2021/03/15 15:30:05;;;;;;;9.60;3.97;;;;;;;;;;5170403;27;20550;-55
2021/03/15 15:32:32;;;;;;;9.98;4.40;;;;;;;;;;5179032;27;20207;-52
2021/03/15 15:35:34;;;;;;;6.43;2.78;;;;;;;;;;5179306;27;20191;-56
2021/03/15 15:38:01;;;;;;;6.93;1.80;;;;;;;;;;5177897;27;20294;-58
2021/03/15 15:40:29;;;;;;;5.68;1.50;;;;;;;;;;5179806;27;20208;-55